Nashville, NC

12:44 AM EDT on April 22, 2015 (GMT -0400)
Nashville - Birchwood | | Change Station
CLOSE
Current Station
Personal Weather Station
Location: Nashville, NC
Elevation: 223 ft
Nearby Weather Stations
Active Advisory: Special Statement

Elev 223 ft 35.96 °N, 77.94 °W | Updated 58 seconds ago

Clear
Clear
55.6 °F
Feels Like 55.6 °F
N
0.0
Wind Variable Wind from WNW
Gusts 0.0 mph

Today
High -- | Low -- °F
--% Chance of Precip.
Yesterday
High -- | Low -- °F
Precip. -- in
6:30 AM 7:51 PM
Waxing Crescent, 15% visible
Pressure 29.90 in
Visibility 10.0 miles
Clouds Clear
Dew Point 48 °F
Humidity 76%
Rainfall 0.00 in
Snow Depth Not available.
UV 0 out of 12
Pollen 10.20 out of 12
Air Quality Not available.
Flu Activity Sporadic
METAR KRWI 220353Z AUTO 00000KT 10SM CLR 11/09 A2990 RMK AO2 SLP123 T01110094

More Conditions Fewer Conditions

Pressure 29.90 in
Visibility 10.0 miles
Clouds Clear
Dew Point 48 °F
Humidity 76%
Rainfall 0.00 in
Snow Depth Not available.
UV 0 out of 12
Pollen 10.20 out of 12
Air Quality Not available.
Flu Activity Sporadic
METAR KRWI 220353Z AUTO 00000KT 10SM CLR 11/09 A2990 RMK AO2 SLP123 T01110094

More Conditions Fewer Conditions

10-Day Weather Forecast

Almanac

Astronomy

Apr. 22, 2015 Rise Set
Actual Time
Civil Twilight
Nautical Twilight
Astronomical Twilight
Moon
Length of Visible Light
Length of Day
Tomorrow will be .
, % of the Moon is Illuminated

Today's Extremes

State Highs State Lows

Community

WunderPhotos

Upload Photos

1,815,668 photos uploaded!

WunderBlogs® & News

Nearby

Air Quality

  Air Quality AQ Index Pollutant
Not available.

Snow Depth

Station Depth Elevation

Earthquake Activity

City Distance Mag. Time & Date
Minimum magnitude displayed is 2.5.

Coastal Water Temperatures

Place Temperature

Stations

Nearby Weather Stations

Station Location Temp. Windchill Dew Point Humidity Wind Precip. Elev Updated Type
                   
Special Statement
Statement as of 3:13 PM EDT on April 21, 2015

... Increased fire danger for Wednesday afternoon...

Winds will increase Wednesday... with gusts to 40 mph likely during
Wednesday afternoon. Although many areas have received rainfall
lately... wind gusts that high could cause top layer fuels to dry
quickly... increasing the risk of fire. Outdoor burning should be
avoided Wednesday... especially Wednesday afternoon. Winds should
diminish noticeably by sunset Wednesday.


Djf


313 PM EDT Tue Apr 21 2015

... Increased fire danger for Wednesday afternoon...

Winds will increase Wednesday... with gusts to 40 mph likely during
Wednesday afternoon. Although many areas have received rainfall
lately... wind gusts that high could cause top layer fuels to dry
quickly... increasing the risk of fire. Outdoor burning should be
avoided Wednesday... especially Wednesday afternoon. Winds should
diminish noticeably by sunset Wednesday.


Djf